sensor_id;sensor_type;location;lat;lon;timestamp;pressure;altitude;pressure_sealevel;temperature;humidity
31011;BME280;26395;53.412;19.598;2022-10-15T00:12:02;100197.26;;;12.08;100.00
31011;BME280;26395;53.412;19.598;2022-10-15T00:27:05;100193.00;;;12.07;100.00
31011;BME280;26395;53.412;19.598;2022-10-15T00:42:09;100173.98;;;12.17;100.00
31011;BME280;26395;53.412;19.598;2022-10-15T00:57:13;100158.14;;;12.45;100.00
31011;BME280;26395;53.412;19.598;2022-10-15T01:27:45;100121.98;;;12.54;100.00
31011;BME280;26395;53.412;19.598;2022-10-15T01:43:03;100106.89;;;12.47;100.00
31011;BME280;26395;53.412;19.598;2022-10-15T01:58:29;100108.53;;;12.42;100.00
31011;BME280;26395;53.412;19.598;2022-10-15T02:13:40;100087.78;;;12.31;100.00
31011;BME280;26395;53.412;19.598;2022-10-15T02:28:50;100075.94;;;12.15;100.00
31011;BME280;26395;53.412;19.598;2022-10-15T02:43:56;100073.66;;;12.13;100.00
31011;BME280;26395;53.412;19.598;2022-10-15T02:58:59;100068.77;;;12.10;100.00
31011;BME280;26395;53.412;19.598;2022-10-15T03:14:03;100060.77;;;12.09;100.00
31011;BME280;26395;53.412;19.598;2022-10-15T03:29:07;100055.66;;;12.04;100.00
31011;BME280;26395;53.412;19.598;2022-10-15T03:44:21;100044.75;;;11.90;100.00
31011;BME280;26395;53.412;19.598;2022-10-15T03:59:33;100050.70;;;11.82;100.00
31011;BME280;26395;53.412;19.598;2022-10-15T04:14:39;100051.11;;;11.86;100.00
31011;BME280;26395;53.412;19.598;2022-10-15T04:29:46;100044.85;;;11.96;100.00
31011;BME280;26395;53.412;19.598;2022-10-15T04:44:51;100050.55;;;11.99;100.00
31011;BME280;26395;53.412;19.598;2022-10-15T04:59:54;100038.81;;;12.02;100.00
31011;BME280;26395;53.412;19.598;2022-10-15T05:15:09;100030.86;;;12.05;100.00
31011;BME280;26395;53.412;19.598;2022-10-15T05:30:14;100019.88;;;12.08;100.00
31011;BME280;26395;53.412;19.598;2022-10-15T05:45:25;100008.04;;;12.07;100.00
31011;BME280;26395;53.412;19.598;2022-10-15T06:00:30;99994.64;;;12.10;100.00
31011;BME280;26395;53.412;19.598;2022-10-15T06:15:41;100002.39;;;12.15;100.00
31011;BME280;26395;53.412;19.598;2022-10-15T06:30:45;99999.24;;;12.22;100.00
31011;BME280;26395;53.412;19.598;2022-10-15T06:45:48;100005.76;;;12.57;100.00
31011;BME280;26395;53.412;19.598;2022-10-15T07:01:04;100013.77;;;13.33;100.00
31011;BME280;26395;53.412;19.598;2022-10-15T07:16:09;100020.11;;;13.62;100.00
31011;BME280;26395;53.412;19.598;2022-10-15T07:31:13;100026.00;;;14.29;100.00
31011;BME280;26395;53.412;19.598;2022-10-15T07:46:16;100030.73;;;15.20;100.00
31011;BME280;26395;53.412;19.598;2022-10-15T08:01:20;100040.29;;;15.50;100.00
31011;BME280;26395;53.412;19.598;2022-10-15T08:16:24;100026.73;;;15.59;100.00
31011;BME280;26395;53.412;19.598;2022-10-15T08:31:34;100020.77;;;15.85;100.00
31011;BME280;26395;53.412;19.598;2022-10-15T08:46:46;100022.21;;;16.86;100.00
31011;BME280;26395;53.412;19.598;2022-10-15T09:02:01;100018.02;;;17.00;99.72
31011;BME280;26395;53.412;19.598;2022-10-15T09:17:32;99999.92;;;17.00;98.76
31011;BME280;26395;53.412;19.598;2022-10-15T09:32:47;99996.86;;;17.19;96.40
31011;BME280;26395;53.412;19.598;2022-10-15T09:47:58;100007.10;;;17.51;95.00
31011;BME280;26395;53.412;19.598;2022-10-15T10:03:05;99997.09;;;17.50;93.23
31011;BME280;26395;53.412;19.598;2022-10-15T10:18:21;99982.77;;;18.70;89.70
31011;BME280;26395;53.412;19.598;2022-10-15T10:48:51;99979.13;;;18.76;85.53
31011;BME280;26395;53.412;19.598;2022-10-15T11:03:54;99972.80;;;18.48;87.45
31011;BME280;26395;53.412;19.598;2022-10-15T12:05:39;99964.91;;;19.66;81.85
31011;BME280;26395;53.412;19.598;2022-10-15T12:20:45;99958.40;;;20.01;81.47
31011;BME280;26395;53.412;19.598;2022-10-15T12:35:54;99956.46;;;19.62;81.70
31011;BME280;26395;53.412;19.598;2022-10-15T13:06:35;99964.08;;;18.95;83.49
31011;BME280;26395;53.412;19.598;2022-10-15T13:21:52;99964.34;;;19.05;86.64
31011;BME280;26395;53.412;19.598;2022-10-15T13:36:59;99964.40;;;18.79;89.63
31011;BME280;26395;53.412;19.598;2022-10-15T13:52:03;99961.80;;;18.68;89.96
31011;BME280;26395;53.412;19.598;2022-10-15T14:07:23;99953.19;;;18.58;90.78
31011;BME280;26395;53.412;19.598;2022-10-15T14:22:30;99957.01;;;18.51;91.63
31011;BME280;26395;53.412;19.598;2022-10-15T14:37:39;99948.91;;;18.37;92.75
31011;BME280;26395;53.412;19.598;2022-10-15T14:52:49;99950.23;;;18.27;93.01
31011;BME280;26395;53.412;19.598;2022-10-15T15:07:53;99956.23;;;18.19;93.33
31011;BME280;26395;53.412;19.598;2022-10-15T15:22:59;99967.75;;;18.09;94.40
31011;BME280;26395;53.412;19.598;2022-10-15T15:38:06;99980.41;;;17.98;95.61
31011;BME280;26395;53.412;19.598;2022-10-15T15:53:10;99983.88;;;17.78;96.84
31011;BME280;26395;53.412;19.598;2022-10-15T16:08:14;99978.59;;;17.60;98.32
31011;BME280;26395;53.412;19.598;2022-10-15T16:23:18;99997.78;;;17.41;99.86
31011;BME280;26395;53.412;19.598;2022-10-15T16:38:22;100012.42;;;17.34;100.00
31011;BME280;26395;53.412;19.598;2022-10-15T16:53:27;100024.27;;;17.22;100.00
31011;BME280;26395;53.412;19.598;2022-10-15T17:08:42;100037.55;;;17.06;100.00
31011;BME280;26395;53.412;19.598;2022-10-15T17:23:49;100044.96;;;16.80;100.00
31011;BME280;26395;53.412;19.598;2022-10-15T17:38:57;100071.02;;;16.67;100.00
31011;BME280;26395;53.412;19.598;2022-10-15T17:54:01;100084.52;;;16.51;100.00
31011;BME280;26395;53.412;19.598;2022-10-15T18:09:04;100085.03;;;16.52;100.00
31011;BME280;26395;53.412;19.598;2022-10-15T18:24:07;100096.21;;;16.54;100.00
31011;BME280;26395;53.412;19.598;2022-10-15T18:39:10;100106.56;;;16.53;100.00
31011;BME280;26395;53.412;19.598;2022-10-15T18:54:14;100116.83;;;16.51;100.00
31011;BME280;26395;53.412;19.598;2022-10-15T19:09:20;100121.02;;;16.46;100.00
31011;BME280;26395;53.412;19.598;2022-10-15T19:24:23;100117.86;;;16.42;100.00
31011;BME280;26395;53.412;19.598;2022-10-15T19:39:27;100121.14;;;16.38;100.00
31011;BME280;26395;53.412;19.598;2022-10-15T19:54:34;100129.73;;;16.34;100.00
31011;BME280;26395;53.412;19.598;2022-10-15T20:09:37;100127.43;;;16.28;100.00
31011;BME280;26395;53.412;19.598;2022-10-15T20:24:40;100142.16;;;16.26;100.00
31011;BME280;26395;53.412;19.598;2022-10-15T20:39:44;100158.71;;;16.24;100.00
31011;BME280;26395;53.412;19.598;2022-10-15T20:54:49;100168.67;;;16.25;100.00
31011;BME280;26395;53.412;19.598;2022-10-15T21:09:53;100177.24;;;16.29;100.00
31011;BME280;26395;53.412;19.598;2022-10-15T21:24:56;100178.55;;;16.33;100.00
31011;BME280;26395;53.412;19.598;2022-10-15T21:39:59;100183.33;;;16.30;100.00
31011;BME280;26395;53.412;19.598;2022-10-15T21:55:03;100189.80;;;16.30;100.00
31011;BME280;26395;53.412;19.598;2022-10-15T22:10:07;100191.77;;;16.33;100.00
31011;BME280;26395;53.412;19.598;2022-10-15T22:25:10;100212.70;;;16.12;100.00
31011;BME280;26395;53.412;19.598;2022-10-15T22:40:13;100215.07;;;15.86;100.00
31011;BME280;26395;53.412;19.598;2022-10-15T22:55:16;100227.42;;;15.71;100.00
31011;BME280;26395;53.412;19.598;2022-10-15T23:10:20;100244.58;;;15.58;100.00
31011;BME280;26395;53.412;19.598;2022-10-15T23:25:23;100258.23;;;15.52;100.00
31011;BME280;26395;53.412;19.598;2022-10-15T23:40:26;100253.23;;;15.57;100.00
31011;BME280;26395;53.412;19.598;2022-10-15T23:55:29;100256.98;;;15.52;100.00
